sensor_id;sensor_type;location;lat;lon;timestamp;P1;durP1;ratioP1;P2;durP2;ratioP2
1811;SDS011;904;47.814;11.134;2023-04-25T00:00:48;4.18;;;2.20;;
1811;SDS011;904;47.814;11.134;2023-04-25T00:03:15;2.97;;;2.10;;
1811;SDS011;904;47.814;11.134;2023-04-25T00:05:43;3.35;;;1.85;;
1811;SDS011;904;47.814;11.134;2023-04-25T00:08:16;3.10;;;1.77;;
1811;SDS011;904;47.814;11.134;2023-04-25T00:10:43;2.42;;;1.63;;
1811;SDS011;904;47.814;11.134;2023-04-25T00:13:15;3.50;;;2.20;;
1811;SDS011;904;47.814;11.134;2023-04-25T00:15:45;6.25;;;2.60;;
1811;SDS011;904;47.814;11.134;2023-04-25T00:18:13;4.15;;;2.83;;
1811;SDS011;904;47.814;11.134;2023-04-25T00:20:40;4.45;;;2.38;;
1811;SDS011;904;47.814;11.134;2023-04-25T00:23:11;4.93;;;2.83;;
1811;SDS011;904;47.814;11.134;2023-04-25T00:25:42;3.30;;;2.10;;
1811;SDS011;904;47.814;11.134;2023-04-25T00:28:09;4.85;;;2.45;;
1811;SDS011;904;47.814;11.134;2023-04-25T00:30:38;4.40;;;2.58;;
1811;SDS011;904;47.814;11.134;2023-04-25T00:33:07;4.13;;;2.45;;
1811;SDS011;904;47.814;11.134;2023-04-25T00:35:40;5.13;;;3.00;;
1811;SDS011;904;47.814;11.134;2023-04-25T00:38:07;3.60;;;2.20;;
1811;SDS011;904;47.814;11.134;2023-04-25T00:40:34;4.35;;;2.75;;
1811;SDS011;904;47.814;11.134;2023-04-25T00:43:01;4.15;;;2.50;;
1811;SDS011;904;47.814;11.134;2023-04-25T00:45:28;4.45;;;3.00;;
1811;SDS011;904;47.814;11.134;2023-04-25T00:47:56;3.78;;;2.13;;
1811;SDS011;904;47.814;11.134;2023-04-25T00:50:24;3.17;;;2.13;;
1811;SDS011;904;47.814;11.134;2023-04-25T00:52:51;4.72;;;2.55;;
1811;SDS011;904;47.814;11.134;2023-04-25T00:55:19;3.80;;;2.45;;
1811;SDS011;904;47.814;11.134;2023-04-25T00:57:46;4.78;;;1.90;;
1811;SDS011;904;47.814;11.134;2023-04-25T01:00:15;2.67;;;1.60;;
1811;SDS011;904;47.814;11.134;2023-04-25T01:02:43;4.47;;;1.98;;
1811;SDS011;904;47.814;11.134;2023-04-25T01:05:10;4.35;;;2.40;;
1811;SDS011;904;47.814;11.134;2023-04-25T01:07:39;3.80;;;2.47;;
1811;SDS011;904;47.814;11.134;2023-04-25T01:10:09;3.30;;;1.90;;
1811;SDS011;904;47.814;11.134;2023-04-25T01:12:38;4.20;;;1.70;;
1811;SDS011;904;47.814;11.134;2023-04-25T01:15:06;3.72;;;2.20;;
1811;SDS011;904;47.814;11.134;2023-04-25T01:17:33;3.10;;;1.80;;
1811;SDS011;904;47.814;11.134;2023-04-25T01:20:02;4.60;;;2.03;;
1811;SDS011;904;47.814;11.134;2023-04-25T01:22:32;5.78;;;2.65;;
1811;SDS011;904;47.814;11.134;2023-04-25T01:24:59;3.10;;;2.35;;
1811;SDS011;904;47.814;11.134;2023-04-25T01:27:27;3.92;;;1.88;;
1811;SDS011;904;47.814;11.134;2023-04-25T01:29:54;3.58;;;1.88;;
1811;SDS011;904;47.814;11.134;2023-04-25T01:32:22;3.47;;;2.30;;
1811;SDS011;904;47.814;11.134;2023-04-25T01:34:55;3.00;;;2.30;;
1811;SDS011;904;47.814;11.134;2023-04-25T01:37:22;6.00;;;2.10;;
1811;SDS011;904;47.814;11.134;2023-04-25T01:39:50;2.95;;;1.90;;
1811;SDS011;904;47.814;11.134;2023-04-25T01:42:18;3.78;;;1.63;;
1811;SDS011;904;47.814;11.134;2023-04-25T01:44:45;3.50;;;1.90;;
1811;SDS011;904;47.814;11.134;2023-04-25T01:47:12;2.78;;;2.05;;
1811;SDS011;904;47.814;11.134;2023-04-25T01:49:39;6.93;;;2.20;;
1811;SDS011;904;47.814;11.134;2023-04-25T01:52:06;3.25;;;1.95;;
1811;SDS011;904;47.814;11.134;2023-04-25T01:54:33;2.80;;;1.90;;
1811;SDS011;904;47.814;11.134;2023-04-25T01:57:02;4.53;;;2.20;;
1811;SDS011;904;47.814;11.134;2023-04-25T01:59:29;3.05;;;1.95;;
1811;SDS011;904;47.814;11.134;2023-04-25T02:02:01;5.00;;;2.05;;
1811;SDS011;904;47.814;11.134;2023-04-25T02:04:28;4.70;;;2.38;;
1811;SDS011;904;47.814;11.134;2023-04-25T02:06:55;2.67;;;1.80;;
1811;SDS011;904;47.814;11.134;2023-04-25T02:09:22;3.40;;;2.10;;
1811;SDS011;904;47.814;11.134;2023-04-25T02:11:50;4.15;;;2.50;;
1811;SDS011;904;47.814;11.134;2023-04-25T02:14:21;4.40;;;2.13;;
1811;SDS011;904;47.814;11.134;2023-04-25T02:16:48;3.15;;;1.95;;
1811;SDS011;904;47.814;11.134;2023-04-25T02:19:16;4.47;;;2.20;;
1811;SDS011;904;47.814;11.134;2023-04-25T02:21:45;3.35;;;2.30;;
1811;SDS011;904;47.814;11.134;2023-04-25T02:24:12;7.15;;;2.85;;
1811;SDS011;904;47.814;11.134;2023-04-25T02:26:39;4.65;;;2.70;;
1811;SDS011;904;47.814;11.134;2023-04-25T02:29:06;4.50;;;2.88;;
1811;SDS011;904;47.814;11.134;2023-04-25T02:31:35;3.10;;;2.35;;
1811;SDS011;904;47.814;11.134;2023-04-25T02:34:02;5.95;;;2.75;;
1811;SDS011;904;47.814;11.134;2023-04-25T02:36:29;3.90;;;2.40;;
1811;SDS011;904;47.814;11.134;2023-04-25T02:38:59;5.57;;;2.53;;
1811;SDS011;904;47.814;11.134;2023-04-25T02:41:26;3.75;;;2.67;;
1811;SDS011;904;47.814;11.134;2023-04-25T02:43:53;2.97;;;1.77;;
1811;SDS011;904;47.814;11.134;2023-04-25T02:46:24;4.45;;;2.20;;
1811;SDS011;904;47.814;11.134;2023-04-25T02:48:53;4.35;;;2.50;;
1811;SDS011;904;47.814;11.134;2023-04-25T02:51:20;4.63;;;2.00;;
1811;SDS011;904;47.814;11.134;2023-04-25T02:53:47;5.82;;;2.30;;
1811;SDS011;904;47.814;11.134;2023-04-25T02:56:14;4.13;;;2.13;;
1811;SDS011;904;47.814;11.134;2023-04-25T02:58:41;4.45;;;2.65;;
1811;SDS011;904;47.814;11.134;2023-04-25T03:01:13;3.53;;;2.13;;
1811;SDS011;904;47.814;11.134;2023-04-25T03:03:40;7.90;;;3.10;;
1811;SDS011;904;47.814;11.134;2023-04-25T03:06:08;4.13;;;2.58;;
1811;SDS011;904;47.814;11.134;2023-04-25T03:08:37;4.78;;;2.88;;
1811;SDS011;904;47.814;11.134;2023-04-25T03:11:04;7.18;;;2.85;;
1811;SDS011;904;47.814;11.134;2023-04-25T03:13:31;3.10;;;1.90;;
1811;SDS011;904;47.814;11.134;2023-04-25T03:15:58;8.25;;;1.85;;
1811;SDS011;904;47.814;11.134;2023-04-25T03:18:29;3.60;;;2.03;;
1811;SDS011;904;47.814;11.134;2023-04-25T03:20:56;4.80;;;2.50;;
1811;SDS011;904;47.814;11.134;2023-04-25T03:23:24;2.85;;;1.90;;
1811;SDS011;904;47.814;11.134;2023-04-25T03:25:51;3.08;;;1.55;;
1811;SDS011;904;47.814;11.134;2023-04-25T03:28:18;4.05;;;2.67;;
1811;SDS011;904;47.814;11.134;2023-04-25T03:30:47;3.67;;;1.88;;
1811;SDS011;904;47.814;11.134;2023-04-25T03:33:14;3.55;;;1.60;;
1811;SDS011;904;47.814;11.134;2023-04-25T03:35:41;3.00;;;1.73;;
1811;SDS011;904;47.814;11.134;2023-04-25T03:38:08;3.53;;;2.25;;
1811;SDS011;904;47.814;11.134;2023-04-25T03:40:37;5.90;;;2.67;;
1811;SDS011;904;47.814;11.134;2023-04-25T03:43:04;6.70;;;2.13;;
1811;SDS011;904;47.814;11.134;2023-04-25T03:45:32;5.38;;;1.75;;
1811;SDS011;904;47.814;11.134;2023-04-25T03:47:59;4.75;;;2.00;;
1811;SDS011;904;47.814;11.134;2023-04-25T03:50:26;5.25;;;2.20;;
1811;SDS011;904;47.814;11.134;2023-04-25T03:52:53;3.90;;;2.10;;
1811;SDS011;904;47.814;11.134;2023-04-25T03:55:21;5.68;;;2.38;;
1811;SDS011;904;47.814;11.134;2023-04-25T03:57:50;5.90;;;1.92;;
1811;SDS011;904;47.814;11.134;2023-04-25T04:00:17;5.25;;;1.77;;
1811;SDS011;904;47.814;11.134;2023-04-25T04:02:44;2.97;;;2.10;;
1811;SDS011;904;47.814;11.134;2023-04-25T04:05:11;4.60;;;2.70;;
1811;SDS011;904;47.814;11.134;2023-04-25T04:07:43;4.75;;;2.50;;
1811;SDS011;904;47.814;11.134;2023-04-25T04:10:12;4.25;;;2.58;;
1811;SDS011;904;47.814;11.134;2023-04-25T04:12:39;2.85;;;2.00;;
1811;SDS011;904;47.814;11.134;2023-04-25T04:15:08;2.67;;;1.88;;
1811;SDS011;904;47.814;11.134;2023-04-25T04:17:37;6.20;;;2.80;;
1811;SDS011;904;47.814;11.134;2023-04-25T04:20:04;8.65;;;2.80;;
1811;SDS011;904;47.814;11.134;2023-04-25T04:22:38;4.43;;;2.20;;
1811;SDS011;904;47.814;11.134;2023-04-25T04:25:14;4.43;;;3.08;;
1811;SDS011;904;47.814;11.134;2023-04-25T04:27:41;7.00;;;2.80;;
1811;SDS011;904;47.814;11.134;2023-04-25T04:30:11;4.53;;;2.72;;
1811;SDS011;904;47.814;11.134;2023-04-25T04:32:38;5.13;;;2.35;;
1811;SDS011;904;47.814;11.134;2023-04-25T04:35:06;3.75;;;2.67;;
1811;SDS011;904;47.814;11.134;2023-04-25T04:37:34;3.40;;;2.53;;
1811;SDS011;904;47.814;11.134;2023-04-25T04:40:04;5.20;;;2.35;;
1811;SDS011;904;47.814;11.134;2023-04-25T04:42:32;3.00;;;2.08;;
1811;SDS011;904;47.814;11.134;2023-04-25T04:45:06;3.92;;;2.80;;
1811;SDS011;904;47.814;11.134;2023-04-25T04:47:35;3.67;;;2.40;;
1811;SDS011;904;47.814;11.134;2023-04-25T04:50:02;4.40;;;2.60;;
1811;SDS011;904;47.814;11.134;2023-04-25T04:52:30;5.68;;;2.85;;
1811;SDS011;904;47.814;11.134;2023-04-25T04:54:57;4.85;;;2.85;;
1811;SDS011;904;47.814;11.134;2023-04-25T04:57:24;8.27;;;2.63;;
1811;SDS011;904;47.814;11.134;2023-04-25T04:59:51;5.55;;;2.50;;
1811;SDS011;904;47.814;11.134;2023-04-25T05:02:18;4.97;;;3.25;;
1811;SDS011;904;47.814;11.134;2023-04-25T05:04:47;4.40;;;2.53;;
1811;SDS011;904;47.814;11.134;2023-04-25T05:07:15;6.72;;;2.97;;
1811;SDS011;904;47.814;11.134;2023-04-25T05:09:44;4.38;;;2.95;;
1811;SDS011;904;47.814;11.134;2023-04-25T05:12:14;3.75;;;2.08;;
1811;SDS011;904;47.814;11.134;2023-04-25T05:14:41;3.45;;;2.17;;
1811;SDS011;904;47.814;11.134;2023-04-25T05:17:17;4.95;;;2.50;;
1811;SDS011;904;47.814;11.134;2023-04-25T05:19:44;3.30;;;2.15;;
1811;SDS011;904;47.814;11.134;2023-04-25T05:22:12;3.60;;;2.17;;
1811;SDS011;904;47.814;11.134;2023-04-25T05:24:39;4.82;;;2.50;;
1811;SDS011;904;47.814;11.134;2023-04-25T05:27:11;6.07;;;2.13;;
1811;SDS011;904;47.814;11.134;2023-04-25T05:29:42;4.22;;;2.40;;
1811;SDS011;904;47.814;11.134;2023-04-25T05:32:11;5.65;;;2.30;;
1811;SDS011;904;47.814;11.134;2023-04-25T05:34:39;4.72;;;2.45;;
1811;SDS011;904;47.814;11.134;2023-04-25T05:37:08;4.47;;;2.20;;
1811;SDS011;904;47.814;11.134;2023-04-25T05:39:41;5.53;;;2.60;;
1811;SDS011;904;47.814;11.134;2023-04-25T05:42:13;4.13;;;2.60;;
1811;SDS011;904;47.814;11.134;2023-04-25T05:44:40;3.60;;;2.35;;
1811;SDS011;904;47.814;11.134;2023-04-25T05:47:08;5.20;;;2.88;;
1811;SDS011;904;47.814;11.134;2023-04-25T05:49:35;4.28;;;2.58;;
1811;SDS011;904;47.814;11.134;2023-04-25T05:52:05;3.33;;;2.85;;
1811;SDS011;904;47.814;11.134;2023-04-25T05:54:33;4.07;;;2.65;;
1811;SDS011;904;47.814;11.134;2023-04-25T05:57:00;4.20;;;2.70;;
1811;SDS011;904;47.814;11.134;2023-04-25T05:59:27;3.85;;;3.10;;
1811;SDS011;904;47.814;11.134;2023-04-25T06:01:54;4.72;;;3.30;;
1811;SDS011;904;47.814;11.134;2023-04-25T06:04:21;5.05;;;2.80;;
1811;SDS011;904;47.814;11.134;2023-04-25T06:06:48;5.25;;;2.90;;
1811;SDS011;904;47.814;11.134;2023-04-25T06:09:16;6.60;;;2.55;;
1811;SDS011;904;47.814;11.134;2023-04-25T06:11:45;4.95;;;3.55;;
1811;SDS011;904;47.814;11.134;2023-04-25T06:14:14;6.30;;;3.65;;
1811;SDS011;904;47.814;11.134;2023-04-25T06:16:41;5.80;;;2.47;;
1811;SDS011;904;47.814;11.134;2023-04-25T06:19:08;4.38;;;2.40;;
1811;SDS011;904;47.814;11.134;2023-04-25T06:21:38;4.45;;;2.47;;
1811;SDS011;904;47.814;11.134;2023-04-25T06:24:06;4.43;;;3.55;;
1811;SDS011;904;47.814;11.134;2023-04-25T06:26:33;6.05;;;2.90;;
1811;SDS011;904;47.814;11.134;2023-04-25T06:29:02;6.32;;;3.33;;
1811;SDS011;904;47.814;11.134;2023-04-25T06:31:29;7.30;;;3.03;;
1811;SDS011;904;47.814;11.134;2023-04-25T06:33:59;4.30;;;3.10;;
1811;SDS011;904;47.814;11.134;2023-04-25T06:36:27;7.28;;;3.90;;
1811;SDS011;904;47.814;11.134;2023-04-25T06:38:55;4.82;;;3.22;;
1811;SDS011;904;47.814;11.134;2023-04-25T06:41:22;9.85;;;3.55;;
1811;SDS011;904;47.814;11.134;2023-04-25T06:43:49;4.07;;;2.88;;
1811;SDS011;904;47.814;11.134;2023-04-25T06:46:18;3.95;;;3.00;;
1811;SDS011;904;47.814;11.134;2023-04-25T06:48:45;4.50;;;2.90;;
1811;SDS011;904;47.814;11.134;2023-04-25T06:51:12;6.47;;;3.63;;
1811;SDS011;904;47.814;11.134;2023-04-25T06:53:39;5.90;;;3.67;;
1811;SDS011;904;47.814;11.134;2023-04-25T06:56:08;5.03;;;2.93;;
1811;SDS011;904;47.814;11.134;2023-04-25T06:58:35;7.87;;;3.23;;
1811;SDS011;904;47.814;11.134;2023-04-25T07:01:02;5.83;;;2.57;;
1811;SDS011;904;47.814;11.134;2023-04-25T07:03:31;6.40;;;3.40;;
1811;SDS011;904;47.814;11.134;2023-04-25T07:05:58;4.07;;;2.60;;
1811;SDS011;904;47.814;11.134;2023-04-25T07:08:25;3.90;;;2.60;;
1811;SDS011;904;47.814;11.134;2023-04-25T07:10:52;4.90;;;2.47;;
1811;SDS011;904;47.814;11.134;2023-04-25T07:13:24;2.90;;;1.83;;
1811;SDS011;904;47.814;11.134;2023-04-25T07:15:51;3.90;;;1.90;;
1811;SDS011;904;47.814;11.134;2023-04-25T07:18:23;3.97;;;2.07;;
1811;SDS011;904;47.814;11.134;2023-04-25T07:20:51;3.53;;;2.33;;
1811;SDS011;904;47.814;11.134;2023-04-25T07:23:18;4.60;;;1.53;;
1811;SDS011;904;47.814;11.134;2023-04-25T07:25:50;4.83;;;2.20;;
1811;SDS011;904;47.814;11.134;2023-04-25T07:28:22;3.80;;;2.03;;
1811;SDS011;904;47.814;11.134;2023-04-25T07:30:49;3.33;;;1.93;;
1811;SDS011;904;47.814;11.134;2023-04-25T07:33:17;4.20;;;2.77;;
1811;SDS011;904;47.814;11.134;2023-04-25T07:35:45;6.70;;;2.20;;
1811;SDS011;904;47.814;11.134;2023-04-25T07:38:14;4.83;;;2.30;;
1811;SDS011;904;47.814;11.134;2023-04-25T07:40:41;5.00;;;2.10;;
1811;SDS011;904;47.814;11.134;2023-04-25T07:43:08;3.30;;;2.17;;
1811;SDS011;904;47.814;11.134;2023-04-25T07:45:37;3.23;;;1.70;;
1811;SDS011;904;47.814;11.134;2023-04-25T07:48:04;3.50;;;1.80;;
1811;SDS011;904;47.814;11.134;2023-04-25T07:50:31;3.70;;;1.80;;
1811;SDS011;904;47.814;11.134;2023-04-25T07:53:04;3.63;;;1.73;;
1811;SDS011;904;47.814;11.134;2023-04-25T07:55:35;2.87;;;1.60;;
1811;SDS011;904;47.814;11.134;2023-04-25T07:58:05;4.63;;;1.90;;
1811;SDS011;904;47.814;11.134;2023-04-25T08:00:32;4.53;;;2.20;;
1811;SDS011;904;47.814;11.134;2023-04-25T08:03:04;3.80;;;1.97;;
1811;SDS011;904;47.814;11.134;2023-04-25T08:05:36;5.93;;;2.10;;
1811;SDS011;904;47.814;11.134;2023-04-25T08:08:08;4.37;;;1.90;;
1811;SDS011;904;47.814;11.134;2023-04-25T08:10:37;5.13;;;3.37;;
1811;SDS011;904;47.814;11.134;2023-04-25T08:13:04;6.30;;;3.90;;
1811;SDS011;904;47.814;11.134;2023-04-25T08:15:35;5.07;;;1.73;;
1811;SDS011;904;47.814;11.134;2023-04-25T08:18:04;5.53;;;1.83;;
1811;SDS011;904;47.814;11.134;2023-04-25T08:20:31;3.23;;;1.70;;
1811;SDS011;904;47.814;11.134;2023-04-25T08:23:00;5.23;;;1.93;;
1811;SDS011;904;47.814;11.134;2023-04-25T08:25:30;4.70;;;1.80;;
1811;SDS011;904;47.814;11.134;2023-04-25T08:28:05;4.27;;;1.60;;
1811;SDS011;904;47.814;11.134;2023-04-25T08:30:32;4.40;;;1.80;;
1811;SDS011;904;47.814;11.134;2023-04-25T08:33:00;3.67;;;2.00;;
1811;SDS011;904;47.814;11.134;2023-04-25T08:35:27;4.10;;;1.90;;
1811;SDS011;904;47.814;11.134;2023-04-25T08:37:59;3.50;;;1.80;;
1811;SDS011;904;47.814;11.134;2023-04-25T08:40:27;5.43;;;1.77;;
1811;SDS011;904;47.814;11.134;2023-04-25T08:42:55;2.53;;;1.87;;
1811;SDS011;904;47.814;11.134;2023-04-25T08:45:25;7.17;;;1.80;;
1811;SDS011;904;47.814;11.134;2023-04-25T08:47:53;5.10;;;2.00;;
1811;SDS011;904;47.814;11.134;2023-04-25T08:50:22;3.23;;;1.60;;
1811;SDS011;904;47.814;11.134;2023-04-25T08:52:51;5.40;;;1.97;;
1811;SDS011;904;47.814;11.134;2023-04-25T08:55:22;2.57;;;1.37;;
1811;SDS011;904;47.814;11.134;2023-04-25T08:57:50;7.57;;;2.60;;
1811;SDS011;904;47.814;11.134;2023-04-25T09:00:25;5.83;;;1.73;;
1811;SDS011;904;47.814;11.134;2023-04-25T09:02:54;3.30;;;2.00;;
1811;SDS011;904;47.814;11.134;2023-04-25T09:05:21;7.23;;;2.17;;
1811;SDS011;904;47.814;11.134;2023-04-25T09:07:49;3.80;;;1.57;;
1811;SDS011;904;47.814;11.134;2023-04-25T09:10:16;10.60;;;2.07;;
1811;SDS011;904;47.814;11.134;2023-04-25T09:12:43;4.03;;;2.60;;
1811;SDS011;904;47.814;11.134;2023-04-25T09:15:12;4.80;;;1.70;;
1811;SDS011;904;47.814;11.134;2023-04-25T09:17:42;6.43;;;2.70;;
1811;SDS011;904;47.814;11.134;2023-04-25T09:20:13;7.07;;;1.90;;
1811;SDS011;904;47.814;11.134;2023-04-25T09:22:41;14.20;;;3.10;;
1811;SDS011;904;47.814;11.134;2023-04-25T09:25:08;3.90;;;1.83;;
1811;SDS011;904;47.814;11.134;2023-04-25T09:27:49;3.07;;;1.50;;
1811;SDS011;904;47.814;11.134;2023-04-25T09:30:17;7.30;;;1.40;;
1811;SDS011;904;47.814;11.134;2023-04-25T09:32:46;5.20;;;1.77;;
1811;SDS011;904;47.814;11.134;2023-04-25T09:35:23;3.50;;;1.80;;
1811;SDS011;904;47.814;11.134;2023-04-25T09:37:51;2.47;;;1.33;;
1811;SDS011;904;47.814;11.134;2023-04-25T09:40:18;3.30;;;1.73;;
1811;SDS011;904;47.814;11.134;2023-04-25T09:42:45;3.07;;;1.83;;
1811;SDS011;904;47.814;11.134;2023-04-25T09:45:13;2.90;;;1.57;;
1811;SDS011;904;47.814;11.134;2023-04-25T09:47:40;2.90;;;1.57;;
1811;SDS011;904;47.814;11.134;2023-04-25T09:50:15;5.63;;;1.83;;
1811;SDS011;904;47.814;11.134;2023-04-25T09:52:44;4.77;;;1.83;;
1811;SDS011;904;47.814;11.134;2023-04-25T09:55:11;4.63;;;1.83;;
1811;SDS011;904;47.814;11.134;2023-04-25T09:57:39;3.70;;;1.30;;
1811;SDS011;904;47.814;11.134;2023-04-25T10:00:10;5.20;;;2.20;;
1811;SDS011;904;47.814;11.134;2023-04-25T10:02:38;2.77;;;1.37;;
1811;SDS011;904;47.814;11.134;2023-04-25T10:05:08;4.20;;;1.73;;
1811;SDS011;904;47.814;11.134;2023-04-25T10:07:43;3.50;;;1.80;;
1811;SDS011;904;47.814;11.134;2023-04-25T10:10:11;4.37;;;2.07;;
1811;SDS011;904;47.814;11.134;2023-04-25T10:12:39;4.30;;;1.40;;
1811;SDS011;904;47.814;11.134;2023-04-25T10:15:08;2.97;;;1.60;;
1811;SDS011;904;47.814;11.134;2023-04-25T10:17:37;2.50;;;1.40;;
1811;SDS011;904;47.814;11.134;2023-04-25T10:20:06;2.77;;;1.50;;
1811;SDS011;904;47.814;11.134;2023-04-25T10:22:36;3.40;;;2.10;;
1811;SDS011;904;47.814;11.134;2023-04-25T10:25:07;4.17;;;1.93;;
1811;SDS011;904;47.814;11.134;2023-04-25T10:27:38;6.43;;;3.70;;
1811;SDS011;904;47.814;11.134;2023-04-25T10:30:07;3.90;;;2.10;;
1811;SDS011;904;47.814;11.134;2023-04-25T10:32:37;5.10;;;1.70;;
1811;SDS011;904;47.814;11.134;2023-04-25T10:35:14;6.33;;;2.13;;
1811;SDS011;904;47.814;11.134;2023-04-25T10:37:57;6.40;;;1.57;;
1811;SDS011;904;47.814;11.134;2023-04-25T10:40:32;5.60;;;3.00;;
1811;SDS011;904;47.814;11.134;2023-04-25T10:46:01;3.73;;;1.70;;
1811;SDS011;904;47.814;11.134;2023-04-25T10:48:29;3.43;;;1.60;;
1811;SDS011;904;47.814;11.134;2023-04-25T10:51:08;5.90;;;2.20;;
1811;SDS011;904;47.814;11.134;2023-04-25T10:53:36;3.87;;;2.27;;
1811;SDS011;904;47.814;11.134;2023-04-25T10:56:10;6.30;;;1.88;;
1811;SDS011;904;47.814;11.134;2023-04-25T10:58:41;4.00;;;2.10;;
1811;SDS011;904;47.814;11.134;2023-04-25T11:01:09;3.00;;;1.83;;
1811;SDS011;904;47.814;11.134;2023-04-25T11:03:40;6.00;;;1.92;;
1811;SDS011;904;47.814;11.134;2023-04-25T11:06:11;5.53;;;2.60;;
1811;SDS011;904;47.814;11.134;2023-04-25T11:08:49;3.60;;;2.30;;
1811;SDS011;904;47.814;11.134;2023-04-25T11:11:23;4.65;;;2.40;;
1811;SDS011;904;47.814;11.134;2023-04-25T11:13:50;3.50;;;1.60;;
1811;SDS011;904;47.814;11.134;2023-04-25T11:16:17;3.75;;;1.80;;
1811;SDS011;904;47.814;11.134;2023-04-25T11:18:44;2.80;;;1.80;;
1811;SDS011;904;47.814;11.134;2023-04-25T11:21:11;6.20;;;1.73;;
1811;SDS011;904;47.814;11.134;2023-04-25T11:23:39;2.70;;;1.67;;
1811;SDS011;904;47.814;11.134;2023-04-25T11:26:07;2.60;;;1.57;;
1811;SDS011;904;47.814;11.134;2023-04-25T11:28:35;2.40;;;1.57;;
1811;SDS011;904;47.814;11.134;2023-04-25T11:31:02;3.60;;;1.50;;
1811;SDS011;904;47.814;11.134;2023-04-25T11:33:31;2.47;;;1.40;;
1811;SDS011;904;47.814;11.134;2023-04-25T11:35:58;2.33;;;1.40;;
1811;SDS011;904;47.814;11.134;2023-04-25T11:38:25;3.00;;;1.30;;
1811;SDS011;904;47.814;11.134;2023-04-25T11:40:52;5.57;;;2.10;;
1811;SDS011;904;47.814;11.134;2023-04-25T11:43:20;5.33;;;1.90;;
1811;SDS011;904;47.814;11.134;2023-04-25T11:45:49;3.33;;;1.67;;
1811;SDS011;904;47.814;11.134;2023-04-25T11:48:22;4.10;;;1.60;;
1811;SDS011;904;47.814;11.134;2023-04-25T11:50:51;2.87;;;2.00;;
1811;SDS011;904;47.814;11.134;2023-04-25T11:53:18;3.00;;;1.53;;
1811;SDS011;904;47.814;11.134;2023-04-25T11:55:45;2.30;;;1.23;;
1811;SDS011;904;47.814;11.134;2023-04-25T11:58:12;2.40;;;1.90;;
1811;SDS011;904;47.814;11.134;2023-04-25T12:00:41;2.70;;;1.57;;
1811;SDS011;904;47.814;11.134;2023-04-25T12:03:10;2.63;;;1.80;;
1811;SDS011;904;47.814;11.134;2023-04-25T12:05:37;2.83;;;1.60;;
1811;SDS011;904;47.814;11.134;2023-04-25T12:08:11;6.73;;;1.20;;
1811;SDS011;904;47.814;11.134;2023-04-25T12:10:41;2.23;;;0.90;;
1811;SDS011;904;47.814;11.134;2023-04-25T12:13:22;4.27;;;1.10;;
1811;SDS011;904;47.814;11.134;2023-04-25T12:15:50;2.20;;;1.30;;
1811;SDS011;904;47.814;11.134;2023-04-25T12:18:20;2.30;;;1.30;;
1811;SDS011;904;47.814;11.134;2023-04-25T12:20:49;2.10;;;1.00;;
1811;SDS011;904;47.814;11.134;2023-04-25T12:23:16;1.80;;;0.90;;
1811;SDS011;904;47.814;11.134;2023-04-25T12:25:43;1.73;;;0.70;;
1811;SDS011;904;47.814;11.134;2023-04-25T12:28:14;2.07;;;1.00;;
1811;SDS011;904;47.814;11.134;2023-04-25T12:30:54;2.43;;;1.53;;
1811;SDS011;904;47.814;11.134;2023-04-25T12:33:24;1.80;;;0.87;;
1811;SDS011;904;47.814;11.134;2023-04-25T12:35:52;1.60;;;0.90;;
1811;SDS011;904;47.814;11.134;2023-04-25T12:38:23;1.87;;;0.93;;
1811;SDS011;904;47.814;11.134;2023-04-25T12:40:50;2.43;;;0.77;;
1811;SDS011;904;47.814;11.134;2023-04-25T12:43:19;1.83;;;0.57;;
1811;SDS011;904;47.814;11.134;2023-04-25T12:45:47;1.73;;;0.60;;
1811;SDS011;904;47.814;11.134;2023-04-25T12:48:15;2.00;;;1.00;;
1811;SDS011;904;47.814;11.134;2023-04-25T12:50:44;1.70;;;0.80;;
1811;SDS011;904;47.814;11.134;2023-04-25T12:53:13;1.60;;;0.70;;
1811;SDS011;904;47.814;11.134;2023-04-25T12:55:41;1.70;;;0.70;;
1811;SDS011;904;47.814;11.134;2023-04-25T12:58:08;1.50;;;0.50;;
1811;SDS011;904;47.814;11.134;2023-04-25T13:00:35;1.60;;;0.57;;
1811;SDS011;904;47.814;11.134;2023-04-25T13:03:02;1.50;;;0.50;;
1811;SDS011;904;47.814;11.134;2023-04-25T13:05:30;1.73;;;0.83;;
1811;SDS011;904;47.814;11.134;2023-04-25T13:07:59;1.70;;;0.90;;
1811;SDS011;904;47.814;11.134;2023-04-25T13:10:26;1.70;;;0.90;;
1811;SDS011;904;47.814;11.134;2023-04-25T13:12:53;1.80;;;0.83;;
1811;SDS011;904;47.814;11.134;2023-04-25T13:15:20;2.37;;;0.67;;
1811;SDS011;904;47.814;11.134;2023-04-25T13:17:50;1.77;;;0.83;;
1811;SDS011;904;47.814;11.134;2023-04-25T13:20:17;1.50;;;0.60;;
1811;SDS011;904;47.814;11.134;2023-04-25T13:22:47;1.60;;;0.70;;
1811;SDS011;904;47.814;11.134;2023-04-25T13:25:20;1.50;;;0.60;;
1811;SDS011;904;47.814;11.134;2023-04-25T13:27:47;1.80;;;0.97;;
1811;SDS011;904;47.814;11.134;2023-04-25T13:30:15;1.60;;;0.60;;
1811;SDS011;904;47.814;11.134;2023-04-25T13:32:42;1.50;;;0.57;;
1811;SDS011;904;47.814;11.134;2023-04-25T13:35:10;1.80;;;0.90;;
1811;SDS011;904;47.814;11.134;2023-04-25T13:37:39;1.50;;;0.63;;
1811;SDS011;904;47.814;11.134;2023-04-25T13:40:07;1.60;;;0.83;;
1811;SDS011;904;47.814;11.134;2023-04-25T13:42:37;1.98;;;0.73;;
1811;SDS011;904;47.814;11.134;2023-04-25T13:45:05;1.67;;;0.90;;
1811;SDS011;904;47.814;11.134;2023-04-25T13:47:35;1.80;;;0.83;;
1811;SDS011;904;47.814;11.134;2023-04-25T13:50:06;1.70;;;0.70;;
1811;SDS011;904;47.814;11.134;2023-04-25T13:52:34;1.70;;;0.70;;
1811;SDS011;904;47.814;11.134;2023-04-25T13:55:06;1.63;;;0.70;;
1811;SDS011;904;47.814;11.134;2023-04-25T13:57:34;1.80;;;0.70;;
1811;SDS011;904;47.814;11.134;2023-04-25T14:00:03;1.60;;;0.80;;
1811;SDS011;904;47.814;11.134;2023-04-25T14:02:34;1.70;;;0.90;;
1811;SDS011;904;47.814;11.134;2023-04-25T14:05:01;2.43;;;0.97;;
1811;SDS011;904;47.814;11.134;2023-04-25T14:07:28;1.77;;;1.03;;
1811;SDS011;904;47.814;11.134;2023-04-25T14:09:56;1.80;;;0.80;;
1811;SDS011;904;47.814;11.134;2023-04-25T14:12:23;1.90;;;0.67;;
1811;SDS011;904;47.814;11.134;2023-04-25T14:14:51;1.90;;;0.90;;
1811;SDS011;904;47.814;11.134;2023-04-25T14:17:19;1.80;;;0.90;;
1811;SDS011;904;47.814;11.134;2023-04-25T14:19:46;1.57;;;0.67;;
1811;SDS011;904;47.814;11.134;2023-04-25T14:22:14;2.00;;;1.10;;
1811;SDS011;904;47.814;11.134;2023-04-25T14:24:41;1.80;;;0.83;;
1811;SDS011;904;47.814;11.134;2023-04-25T14:27:13;2.27;;;1.07;;
1811;SDS011;904;47.814;11.134;2023-04-25T14:29:40;2.00;;;0.80;;
1811;SDS011;904;47.814;11.134;2023-04-25T14:32:07;2.13;;;0.90;;
1811;SDS011;904;47.814;11.134;2023-04-25T14:34:36;2.67;;;0.90;;
1811;SDS011;904;47.814;11.134;2023-04-25T14:37:04;1.70;;;0.90;;
1811;SDS011;904;47.814;11.134;2023-04-25T14:39:36;1.70;;;0.90;;
1811;SDS011;904;47.814;11.134;2023-04-25T14:42:32;2.10;;;1.37;;
1811;SDS011;904;47.814;11.134;2023-04-25T14:44:59;2.47;;;1.37;;
1811;SDS011;904;47.814;11.134;2023-04-25T14:47:26;1.90;;;0.97;;
1811;SDS011;904;47.814;11.134;2023-04-25T14:49:54;5.73;;;0.80;;
1811;SDS011;904;47.814;11.134;2023-04-25T14:52:22;2.87;;;1.20;;
1811;SDS011;904;47.814;11.134;2023-04-25T14:54:49;2.00;;;1.00;;
1811;SDS011;904;47.814;11.134;2023-04-25T14:57:16;1.80;;;0.90;;
1811;SDS011;904;47.814;11.134;2023-04-25T14:59:43;1.90;;;0.80;;
1811;SDS011;904;47.814;11.134;2023-04-25T15:02:10;2.40;;;1.20;;
1811;SDS011;904;47.814;11.134;2023-04-25T15:04:37;1.70;;;0.80;;
1811;SDS011;904;47.814;11.134;2023-04-25T15:07:06;1.83;;;0.83;;
1811;SDS011;904;47.814;11.134;2023-04-25T15:09:33;4.23;;;1.30;;
1811;SDS011;904;47.814;11.134;2023-04-25T15:12:00;1.93;;;0.90;;
1811;SDS011;904;47.814;11.134;2023-04-25T15:14:28;2.30;;;1.10;;
1811;SDS011;904;47.814;11.134;2023-04-25T15:16:55;2.13;;;1.10;;
1811;SDS011;904;47.814;11.134;2023-04-25T15:19:22;2.00;;;0.90;;
1811;SDS011;904;47.814;11.134;2023-04-25T15:21:49;1.70;;;0.80;;
1811;SDS011;904;47.814;11.134;2023-04-25T15:24:18;1.70;;;0.73;;
1811;SDS011;904;47.814;11.134;2023-04-25T15:26:45;1.67;;;0.70;;